sensor_id;sensor_type;location;lat;lon;timestamp;P1;durP1;ratioP1;P2;durP2;ratioP2
23400;SDS011;11873;49.300;8.920;2022-09-02T00:04:18;3.23;;;3.00;;
23400;SDS011;11873;49.300;8.920;2022-09-02T00:14:25;3.30;;;2.83;;
23400;SDS011;11873;49.300;8.920;2022-09-02T00:19:27;3.30;;;3.00;;
23400;SDS011;11873;49.300;8.920;2022-09-02T00:24:28;3.13;;;2.87;;
23400;SDS011;11873;49.300;8.920;2022-09-02T00:39:43;4.17;;;3.03;;
23400;SDS011;11873;49.300;8.920;2022-09-02T00:44:44;2.63;;;2.47;;
23400;SDS011;11873;49.300;8.920;2022-09-02T00:49:48;3.20;;;3.00;;
23400;SDS011;11873;49.300;8.920;2022-09-02T00:54:51;3.10;;;2.90;;
23400;SDS011;11873;49.300;8.920;2022-09-02T01:05:16;2.77;;;2.57;;
23400;SDS011;11873;49.300;8.920;2022-09-02T01:10:19;3.33;;;2.90;;
23400;SDS011;11873;49.300;8.920;2022-09-02T01:15:19;2.93;;;2.73;;
23400;SDS011;11873;49.300;8.920;2022-09-02T01:20:22;3.17;;;2.90;;
23400;SDS011;11873;49.300;8.920;2022-09-02T01:25:24;3.63;;;2.97;;
23400;SDS011;11873;49.300;8.920;2022-09-02T01:30:25;3.27;;;2.97;;
23400;SDS011;11873;49.300;8.920;2022-09-02T01:35:25;2.63;;;2.43;;
23400;SDS011;11873;49.300;8.920;2022-09-02T01:40:26;3.40;;;3.10;;
23400;SDS011;11873;49.300;8.920;2022-09-02T01:45:27;3.80;;;3.27;;
23400;SDS011;11873;49.300;8.920;2022-09-02T01:50:29;3.10;;;2.90;;
23400;SDS011;11873;49.300;8.920;2022-09-02T01:55:30;2.90;;;2.70;;
23400;SDS011;11873;49.300;8.920;2022-09-02T02:00:32;2.90;;;2.70;;
23400;SDS011;11873;49.300;8.920;2022-09-02T02:05:34;2.93;;;2.73;;
23400;SDS011;11873;49.300;8.920;2022-09-02T02:10:35;2.87;;;2.67;;
23400;SDS011;11873;49.300;8.920;2022-09-02T02:15:37;3.10;;;2.90;;
23400;SDS011;11873;49.300;8.920;2022-09-02T02:20:37;2.83;;;2.63;;
23400;SDS011;11873;49.300;8.920;2022-09-02T02:25:38;3.13;;;2.83;;
23400;SDS011;11873;49.300;8.920;2022-09-02T02:30:40;2.90;;;2.50;;
23400;SDS011;11873;49.300;8.920;2022-09-02T02:35:47;2.93;;;2.73;;
23400;SDS011;11873;49.300;8.920;2022-09-02T02:40:47;2.80;;;2.60;;
23400;SDS011;11873;49.300;8.920;2022-09-02T02:51:12;2.80;;;2.50;;
23400;SDS011;11873;49.300;8.920;2022-09-02T02:56:12;3.50;;;2.90;;
23400;SDS011;11873;49.300;8.920;2022-09-02T03:01:13;2.60;;;2.43;;
23400;SDS011;11873;49.300;8.920;2022-09-02T03:06:13;2.67;;;2.47;;
23400;SDS011;11873;49.300;8.920;2022-09-02T03:11:15;2.70;;;2.50;;
23400;SDS011;11873;49.300;8.920;2022-09-02T03:16:15;2.50;;;2.30;;
23400;SDS011;11873;49.300;8.920;2022-09-02T03:21:16;2.80;;;2.60;;
23400;SDS011;11873;49.300;8.920;2022-09-02T03:26:18;3.33;;;2.63;;
23400;SDS011;11873;49.300;8.920;2022-09-02T03:31:19;2.50;;;2.40;;
23400;SDS011;11873;49.300;8.920;2022-09-02T03:36:25;5.30;;;2.63;;
23400;SDS011;11873;49.300;8.920;2022-09-02T03:41:26;2.90;;;2.70;;
23400;SDS011;11873;49.300;8.920;2022-09-02T03:46:27;2.60;;;2.40;;
23400;SDS011;11873;49.300;8.920;2022-09-02T03:51:28;2.63;;;2.47;;
23400;SDS011;11873;49.300;8.920;2022-09-02T03:56:29;2.50;;;2.30;;
23400;SDS011;11873;49.300;8.920;2022-09-02T04:01:30;2.80;;;2.53;;
23400;SDS011;11873;49.300;8.920;2022-09-02T04:06:31;2.90;;;2.70;;
23400;SDS011;11873;49.300;8.920;2022-09-02T04:11:31;2.90;;;2.70;;
23400;SDS011;11873;49.300;8.920;2022-09-02T04:16:33;2.80;;;2.60;;
23400;SDS011;11873;49.300;8.920;2022-09-02T04:21:38;5.80;;;2.80;;
23400;SDS011;11873;49.300;8.920;2022-09-02T04:26:40;3.00;;;2.70;;
23400;SDS011;11873;49.300;8.920;2022-09-02T04:31:40;3.43;;;2.40;;
23400;SDS011;11873;49.300;8.920;2022-09-02T04:36:42;2.90;;;2.70;;
23400;SDS011;11873;49.300;8.920;2022-09-02T04:41:43;3.00;;;2.70;;
23400;SDS011;11873;49.300;8.920;2022-09-02T04:46:43;2.63;;;2.43;;
23400;SDS011;11873;49.300;8.920;2022-09-02T04:51:45;2.43;;;2.23;;
23400;SDS011;11873;49.300;8.920;2022-09-02T04:56:48;2.83;;;2.50;;
23400;SDS011;11873;49.300;8.920;2022-09-02T05:01:49;3.37;;;2.97;;
23400;SDS011;11873;49.300;8.920;2022-09-02T05:06:53;3.83;;;2.97;;
23400;SDS011;11873;49.300;8.920;2022-09-02T05:11:55;4.37;;;2.73;;
23400;SDS011;11873;49.300;8.920;2022-09-02T05:16:55;2.67;;;2.47;;
23400;SDS011;11873;49.300;8.920;2022-09-02T05:21:56;3.33;;;3.13;;
23400;SDS011;11873;49.300;8.920;2022-09-02T05:26:57;2.83;;;2.50;;
23400;SDS011;11873;49.300;8.920;2022-09-02T05:31:57;3.60;;;3.10;;
23400;SDS011;11873;49.300;8.920;2022-09-02T05:36:58;2.70;;;2.50;;
23400;SDS011;11873;49.300;8.920;2022-09-02T05:41:59;2.53;;;2.33;;
23400;SDS011;11873;49.300;8.920;2022-09-02T05:46:59;2.60;;;2.13;;
23400;SDS011;11873;49.300;8.920;2022-09-02T05:51:59;2.50;;;2.13;;
23400;SDS011;11873;49.300;8.920;2022-09-02T05:57:02;2.30;;;2.20;;
23400;SDS011;11873;49.300;8.920;2022-09-02T06:02:02;2.00;;;1.90;;
23400;SDS011;11873;49.300;8.920;2022-09-02T06:07:03;2.40;;;2.17;;
23400;SDS011;11873;49.300;8.920;2022-09-02T06:12:03;2.80;;;2.60;;
23400;SDS011;11873;49.300;8.920;2022-09-02T06:17:03;2.23;;;2.03;;
23400;SDS011;11873;49.300;8.920;2022-09-02T06:22:04;2.20;;;2.10;;
23400;SDS011;11873;49.300;8.920;2022-09-02T06:27:04;2.20;;;2.00;;
23400;SDS011;11873;49.300;8.920;2022-09-02T06:32:04;1.30;;;1.20;;
23400;SDS011;11873;49.300;8.920;2022-09-02T06:37:04;1.63;;;1.53;;
23400;SDS011;11873;49.300;8.920;2022-09-02T06:42:05;1.77;;;1.67;;
23400;SDS011;11873;49.300;8.920;2022-09-02T06:47:05;2.00;;;1.90;;
23400;SDS011;11873;49.300;8.920;2022-09-02T06:52:05;1.80;;;1.70;;
23400;SDS011;11873;49.300;8.920;2022-09-02T06:57:05;1.97;;;1.87;;
23400;SDS011;11873;49.300;8.920;2022-09-02T07:02:06;2.63;;;1.80;;
23400;SDS011;11873;49.300;8.920;2022-09-02T07:07:06;1.93;;;1.83;;
23400;SDS011;11873;49.300;8.920;2022-09-02T07:12:07;2.20;;;2.00;;
23400;SDS011;11873;49.300;8.920;2022-09-02T07:17:07;3.40;;;1.73;;
23400;SDS011;11873;49.300;8.920;2022-09-02T07:22:07;1.73;;;1.60;;
23400;SDS011;11873;49.300;8.920;2022-09-02T07:27:07;3.50;;;1.80;;
23400;SDS011;11873;49.300;8.920;2022-09-02T07:32:08;1.43;;;1.33;;
23400;SDS011;11873;49.300;8.920;2022-09-02T07:37:09;3.73;;;1.30;;
23400;SDS011;11873;49.300;8.920;2022-09-02T07:42:09;0.90;;;0.87;;
23400;SDS011;11873;49.300;8.920;2022-09-02T07:47:10;1.43;;;1.33;;
23400;SDS011;11873;49.300;8.920;2022-09-02T07:52:10;1.37;;;1.27;;
23400;SDS011;11873;49.300;8.920;2022-09-02T07:57:10;1.90;;;1.80;;
23400;SDS011;11873;49.300;8.920;2022-09-02T08:02:10;1.73;;;1.63;;
23400;SDS011;11873;49.300;8.920;2022-09-02T08:07:10;1.07;;;1.03;;
23400;SDS011;11873;49.300;8.920;2022-09-02T08:12:11;2.03;;;1.33;;
23400;SDS011;11873;49.300;8.920;2022-09-02T08:17:11;1.03;;;1.03;;
23400;SDS011;11873;49.300;8.920;2022-09-02T08:22:11;2.97;;;1.40;;
23400;SDS011;11873;49.300;8.920;2022-09-02T08:27:11;1.10;;;1.10;;
23400;SDS011;11873;49.300;8.920;2022-09-02T08:32:11;0.90;;;0.90;;
23400;SDS011;11873;49.300;8.920;2022-09-02T08:37:12;1.53;;;1.43;;
23400;SDS011;11873;49.300;8.920;2022-09-02T08:47:19;2.20;;;1.10;;
23400;SDS011;11873;49.300;8.920;2022-09-02T08:52:27;1.50;;;1.40;;
23400;SDS011;11873;49.300;8.920;2022-09-02T08:57:28;1.43;;;1.37;;
23400;SDS011;11873;49.300;8.920;2022-09-02T09:02:42;1.80;;;1.70;;
23400;SDS011;11873;49.300;8.920;2022-09-02T09:07:58;1.13;;;0.90;;
23400;SDS011;11873;49.300;8.920;2022-09-02T09:18:03;1.37;;;1.33;;
23400;SDS011;11873;49.300;8.920;2022-09-02T09:28:22;0.97;;;0.97;;
23400;SDS011;11873;49.300;8.920;2022-09-02T09:33:22;1.10;;;1.10;;
23400;SDS011;11873;49.300;8.920;2022-09-02T09:38:29;0.87;;;0.87;;
23400;SDS011;11873;49.300;8.920;2022-09-02T09:43:30;1.97;;;1.03;;
23400;SDS011;11873;49.300;8.920;2022-09-02T09:48:32;0.80;;;0.80;;
23400;SDS011;11873;49.300;8.920;2022-09-02T09:53:32;0.97;;;0.97;;
23400;SDS011;11873;49.300;8.920;2022-09-02T10:03:40;0.80;;;0.80;;
23400;SDS011;11873;49.300;8.920;2022-09-02T10:08:54;2.10;;;1.10;;
23400;SDS011;11873;49.300;8.920;2022-09-02T10:13:59;2.00;;;1.30;;
23400;SDS011;11873;49.300;8.920;2022-09-02T10:44:44;1.73;;;1.00;;
23400;SDS011;11873;49.300;8.920;2022-09-02T11:00:14;0.50;;;0.50;;
23400;SDS011;11873;49.300;8.920;2022-09-02T11:05:17;0.63;;;0.63;;
23400;SDS011;11873;49.300;8.920;2022-09-02T11:10:40;0.60;;;0.60;;
23400;SDS011;11873;49.300;8.920;2022-09-02T11:30:54;0.70;;;0.70;;
23400;SDS011;11873;49.300;8.920;2022-09-02T11:35:56;0.47;;;0.47;;
23400;SDS011;11873;49.300;8.920;2022-09-02T12:01:21;1.40;;;1.17;;
23400;SDS011;11873;49.300;8.920;2022-09-02T12:06:22;0.63;;;0.63;;
23400;SDS011;11873;49.300;8.920;2022-09-02T12:11:44;0.90;;;0.90;;
23400;SDS011;11873;49.300;8.920;2022-09-02T12:17:07;0.70;;;0.70;;
23400;SDS011;11873;49.300;8.920;2022-09-02T12:27:20;1.07;;;1.03;;
23400;SDS011;11873;49.300;8.920;2022-09-02T12:37:50;0.70;;;0.70;;
23400;SDS011;11873;49.300;8.920;2022-09-02T12:42:51;1.13;;;1.00;;
23400;SDS011;11873;49.300;8.920;2022-09-02T12:48:16;4.10;;;1.03;;
23400;SDS011;11873;49.300;8.920;2022-09-02T12:58:23;0.77;;;0.77;;
23400;SDS011;11873;49.300;8.920;2022-09-02T13:14:42;0.50;;;0.50;;
23400;SDS011;11873;49.300;8.920;2022-09-02T13:19:21;1.03;;;1.00;;
23400;SDS011;11873;49.300;8.920;2022-09-02T13:34:44;1.43;;;1.10;;
23400;SDS011;11873;49.300;8.920;2022-09-02T13:39:45;0.60;;;0.60;;
23400;SDS011;11873;49.300;8.920;2022-09-02T13:44:46;0.80;;;0.80;;
23400;SDS011;11873;49.300;8.920;2022-09-02T13:49:46;0.90;;;0.90;;
23400;SDS011;11873;49.300;8.920;2022-09-02T13:54:49;1.90;;;1.20;;
23400;SDS011;11873;49.300;8.920;2022-09-02T13:59:51;0.83;;;0.83;;
23400;SDS011;11873;49.300;8.920;2022-09-02T14:04:53;1.00;;;1.00;;
23400;SDS011;11873;49.300;8.920;2022-09-02T14:09:54;3.27;;;1.10;;
23400;SDS011;11873;49.300;8.920;2022-09-02T14:14:55;0.70;;;0.70;;
23400;SDS011;11873;49.300;8.920;2022-09-02T14:25:15;1.13;;;0.73;;
23400;SDS011;11873;49.300;8.920;2022-09-02T14:30:32;0.90;;;0.70;;
23400;SDS011;11873;49.300;8.920;2022-09-02T14:35:32;0.87;;;0.87;;
23400;SDS011;11873;49.300;8.920;2022-09-02T14:40:34;0.67;;;0.67;;
23400;SDS011;11873;49.300;8.920;2022-09-02T14:45:35;1.83;;;1.10;;
23400;SDS011;11873;49.300;8.920;2022-09-02T14:50:35;1.27;;;0.80;;
23400;SDS011;11873;49.300;8.920;2022-09-02T15:00:39;1.10;;;1.00;;
23400;SDS011;11873;49.300;8.920;2022-09-02T15:05:39;1.20;;;1.10;;
23400;SDS011;11873;49.300;8.920;2022-09-02T15:10:39;1.77;;;0.90;;
23400;SDS011;11873;49.300;8.920;2022-09-02T15:15:40;1.20;;;1.10;;
23400;SDS011;11873;49.300;8.920;2022-09-02T15:20:40;2.83;;;1.00;;
23400;SDS011;11873;49.300;8.920;2022-09-02T15:25:40;1.53;;;1.10;;
23400;SDS011;11873;49.300;8.920;2022-09-02T15:30:47;1.80;;;1.17;;
23400;SDS011;11873;49.300;8.920;2022-09-02T15:35:47;1.53;;;0.90;;
23400;SDS011;11873;49.300;8.920;2022-09-02T15:40:48;1.17;;;1.07;;
23400;SDS011;11873;49.300;8.920;2022-09-02T15:45:48;1.90;;;0.80;;
23400;SDS011;11873;49.300;8.920;2022-09-02T15:50:48;0.87;;;0.87;;
23400;SDS011;11873;49.300;8.920;2022-09-02T15:55:48;0.93;;;0.93;;
23400;SDS011;11873;49.300;8.920;2022-09-02T16:00:49;0.80;;;0.80;;
23400;SDS011;11873;49.300;8.920;2022-09-02T16:05:49;1.03;;;1.00;;
23400;SDS011;11873;49.300;8.920;2022-09-02T16:10:49;0.87;;;0.87;;
23400;SDS011;11873;49.300;8.920;2022-09-02T16:15:49;1.00;;;1.00;;
23400;SDS011;11873;49.300;8.920;2022-09-02T16:20:49;1.30;;;1.07;;
23400;SDS011;11873;49.300;8.920;2022-09-02T16:26:09;0.90;;;0.90;;
23400;SDS011;11873;49.300;8.920;2022-09-02T16:31:11;0.83;;;0.83;;
23400;SDS011;11873;49.300;8.920;2022-09-02T16:36:12;1.30;;;1.20;;
23400;SDS011;11873;49.300;8.920;2022-09-02T16:46:21;1.40;;;1.07;;
23400;SDS011;11873;49.300;8.920;2022-09-02T16:51:21;1.07;;;1.07;;
23400;SDS011;11873;49.300;8.920;2022-09-02T16:56:22;2.17;;;1.13;;
23400;SDS011;11873;49.300;8.920;2022-09-02T17:01:22;1.17;;;0.90;;
23400;SDS011;11873;49.300;8.920;2022-09-02T17:06:22;1.10;;;1.10;;
23400;SDS011;11873;49.300;8.920;2022-09-02T17:11:27;1.03;;;1.00;;
23400;SDS011;11873;49.300;8.920;2022-09-02T17:16:28;0.80;;;0.80;;
23400;SDS011;11873;49.300;8.920;2022-09-02T17:21:35;1.00;;;1.00;;
23400;SDS011;11873;49.300;8.920;2022-09-02T17:26:37;1.47;;;1.20;;
23400;SDS011;11873;49.300;8.920;2022-09-02T17:31:38;2.13;;;0.90;;
23400;SDS011;11873;49.300;8.920;2022-09-02T17:36:38;1.00;;;1.00;;
23400;SDS011;11873;49.300;8.920;2022-09-02T17:41:39;1.00;;;1.00;;
23400;SDS011;11873;49.300;8.920;2022-09-02T17:46:39;1.17;;;1.00;;
23400;SDS011;11873;49.300;8.920;2022-09-02T17:51:40;1.03;;;0.97;;
23400;SDS011;11873;49.300;8.920;2022-09-02T17:56:53;1.70;;;0.97;;
23400;SDS011;11873;49.300;8.920;2022-09-02T18:12:34;1.67;;;1.23;;
23400;SDS011;11873;49.300;8.920;2022-09-02T18:17:56;0.90;;;0.90;;
23400;SDS011;11873;49.300;8.920;2022-09-02T18:33:29;1.00;;;1.00;;
23400;SDS011;11873;49.300;8.920;2022-09-02T18:38:41;0.90;;;0.90;;
23400;SDS011;11873;49.300;8.920;2022-09-02T18:43:54;1.03;;;1.03;;
23400;SDS011;11873;49.300;8.920;2022-09-02T18:48:58;1.87;;;1.10;;
23400;SDS011;11873;49.300;8.920;2022-09-02T18:54:04;1.10;;;1.10;;
23400;SDS011;11873;49.300;8.920;2022-09-02T18:59:07;1.90;;;1.23;;
23400;SDS011;11873;49.300;8.920;2022-09-02T19:04:09;1.33;;;1.23;;
23400;SDS011;11873;49.300;8.920;2022-09-02T19:09:13;1.17;;;1.10;;
23400;SDS011;11873;49.300;8.920;2022-09-02T19:14:21;2.20;;;1.50;;
23400;SDS011;11873;49.300;8.920;2022-09-02T19:19:23;1.27;;;1.17;;
23400;SDS011;11873;49.300;8.920;2022-09-02T19:24:28;1.40;;;1.30;;
23400;SDS011;11873;49.300;8.920;2022-09-02T19:29:30;1.30;;;1.20;;
23400;SDS011;11873;49.300;8.920;2022-09-02T19:34:32;1.47;;;0.90;;
23400;SDS011;11873;49.300;8.920;2022-09-02T19:39:33;2.60;;;1.10;;
23400;SDS011;11873;49.300;8.920;2022-09-02T19:44:33;1.50;;;1.40;;
23400;SDS011;11873;49.300;8.920;2022-09-02T19:49:33;1.70;;;1.53;;
23400;SDS011;11873;49.300;8.920;2022-09-02T19:54:34;2.07;;;1.23;;
23400;SDS011;11873;49.300;8.920;2022-09-02T19:59:34;3.33;;;1.23;;
23400;SDS011;11873;49.300;8.920;2022-09-02T20:04:34;1.40;;;1.30;;
23400;SDS011;11873;49.300;8.920;2022-09-02T20:09:34;2.67;;;1.40;;
23400;SDS011;11873;49.300;8.920;2022-09-02T20:14:34;2.93;;;1.40;;
23400;SDS011;11873;49.300;8.920;2022-09-02T20:19:35;1.87;;;1.20;;
23400;SDS011;11873;49.300;8.920;2022-09-02T20:24:35;1.40;;;1.30;;
23400;SDS011;11873;49.300;8.920;2022-09-02T20:40:20;4.40;;;1.40;;
23400;SDS011;11873;49.300;8.920;2022-09-02T20:45:37;1.20;;;1.20;;
23400;SDS011;11873;49.300;8.920;2022-09-02T20:50:47;1.07;;;1.07;;
23400;SDS011;11873;49.300;8.920;2022-09-02T20:56:00;1.20;;;1.10;;
23400;SDS011;11873;49.300;8.920;2022-09-02T21:01:08;1.70;;;1.47;;
23400;SDS011;11873;49.300;8.920;2022-09-02T21:06:10;1.33;;;1.20;;
23400;SDS011;11873;49.300;8.920;2022-09-02T21:11:10;1.10;;;1.00;;
23400;SDS011;11873;49.300;8.920;2022-09-02T21:16:13;2.97;;;1.20;;
23400;SDS011;11873;49.300;8.920;2022-09-02T21:26:18;1.40;;;1.30;;
23400;SDS011;11873;49.300;8.920;2022-09-02T21:31:25;1.83;;;1.30;;
23400;SDS011;11873;49.300;8.920;2022-09-02T21:36:26;5.13;;;1.30;;
23400;SDS011;11873;49.300;8.920;2022-09-02T21:41:28;1.40;;;1.30;;
23400;SDS011;11873;49.300;8.920;2022-09-02T21:51:35;1.10;;;1.10;;
23400;SDS011;11873;49.300;8.920;2022-09-02T21:56:48;1.03;;;1.03;;
23400;SDS011;11873;49.300;8.920;2022-09-02T22:07:41;1.70;;;1.20;;
23400;SDS011;11873;49.300;8.920;2022-09-02T22:12:20;1.40;;;1.30;;
23400;SDS011;11873;49.300;8.920;2022-09-02T22:17:43;1.73;;;1.17;;
23400;SDS011;11873;49.300;8.920;2022-09-02T22:22:42;1.27;;;1.17;;
23400;SDS011;11873;49.300;8.920;2022-09-02T22:27:50;1.80;;;1.20;;
23400;SDS011;11873;49.300;8.920;2022-09-02T22:32:54;1.43;;;1.33;;
23400;SDS011;11873;49.300;8.920;2022-09-02T22:42:59;1.00;;;1.00;;
23400;SDS011;11873;49.300;8.920;2022-09-02T22:48:10;1.43;;;1.00;;
23400;SDS011;11873;49.300;8.920;2022-09-02T22:53:12;0.93;;;0.93;;
23400;SDS011;11873;49.300;8.920;2022-09-02T22:58:20;2.00;;;1.40;;
23400;SDS011;11873;49.300;8.920;2022-09-02T23:03:27;1.10;;;1.10;;
23400;SDS011;11873;49.300;8.920;2022-09-02T23:08:33;1.20;;;1.10;;
23400;SDS011;11873;49.300;8.920;2022-09-02T23:23:55;0.90;;;0.90;;
23400;SDS011;11873;49.300;8.920;2022-09-02T23:28:58;2.00;;;1.30;;
23400;SDS011;11873;49.300;8.920;2022-09-02T23:34:19;0.90;;;0.90;;
23400;SDS011;11873;49.300;8.920;2022-09-02T23:39:42;1.63;;;1.10;;
23400;SDS011;11873;49.300;8.920;2022-09-02T23:44:44;1.47;;;1.37;;
23400;SDS011;11873;49.300;8.920;2022-09-02T23:49:57;1.40;;;1.30;;
23400;SDS011;11873;49.300;8.920;2022-09-02T23:55:07;1.47;;;1.20;;
